< Cyclone 198507 1985 Season Cyclone 198509 >
Cyclone 198508 (ISOBEL)
General InformationTrack Information on Google MapsDetailed Wind InformationList of All Images || ResourceGoogle EarthGE AnimationAtom FeedGeoJSON
Detalied Best Track (Time Zone = UTC)
Year Month Day Hour Lat. Long. Pressure (hPa) Wind (kt) Class Image Chart
1985 2 11 06 -7.5 100.6 1003 23 2 Image --
1985 2 11 12 -7.8 100.8 1003 23 2 Image --
1985 2 11 18 -8.2 101.1 1003 23 2 Image --
1985 2 12 00 -8.6 101.5 1002 25 2 Image --
1985 2 12 06 -9.0 101.7 1001 27 2 Image --
1985 2 12 12 -9.5 101.9 1000 31 2 Image --
1985 2 12 18 -10.1 102.2 997 35 3 Image --
1985 2 13 00 -10.7 102.4 994 41 3 Image --
1985 2 13 06 -11.4 102.5 992 45 3 Image --
1985 2 13 12 -11.9 102.0 988 51 4 Image --
1985 2 13 18 -12.3 101.1 986 53 4 Image --
1985 2 14 00 -12.7 100.6 982 60 4 Image --
1985 2 14 06 -13.3 100.4 976 66 5 Image --
1985 2 14 18 -12.9 101.4 980 60 4 Image --
1985 2 15 00 -12.6 102.0 982 60 4 Image --
1985 2 15 06 -12.5 102.7 982 60 4 Image --
1985 2 15 12 -12.7 103.3 981 60 4 Image --
1985 2 15 18 -13.1 104.0 979 62 4 Image --
1985 2 16 00 -13.7 104.6 977 64 5 Image --
1985 2 16 06 -14.3 105.2 973 70 5 Image --
1985 2 16 12 -14.7 105.5 970 74 5 Image --
1985 2 16 18 -15.1 105.4 966 78 5 Image --
1985 2 17 00 -15.5 105.0 960 84 5 Image --
1985 2 17 06 -16.0 104.5 963 82 5 Image --
1985 2 17 12 -16.6 103.9 964 80 5 Image --
1985 2 17 18 -17.0 103.3 966 78 5 Image --
1985 2 18 00 -17.3 102.7 966 78 5 Image --
1985 2 18 06 -17.6 102.1 966 78 5 Image --
1985 2 18 12 -18.0 101.6 966 78 5 Image --
1985 2 18 18 -18.4 101.2 970 74 5 Image --
1985 2 19 00 -18.9 101.0 976 66 5 Image --
1985 2 19 06 -19.5 100.5 976 66 5 Image --
1985 2 19 12 -19.9 100.1 976 66 5 Image --
1985 2 19 18 -20.3 99.5 980 60 4 Image --
1985 2 20 00 -20.8 98.7 984 54 4 Image --
1985 2 20 06 -21.6 97.7 986 53 4 Image --
1985 2 20 12 -22.4 96.8 988 47 3 Image --
1985 2 20 18 -23.3 96.1 990 47 3 Image --
1985 2 21 00 -24.5 95.5 994 41 3 Image --
1985 2 21 06 -25.9 95.0 995 39 3 Image --
1985 2 21 12 -27.6 94.7 998 33 2 Image --
1985 2 21 18 -29.5 94.4 999 31 2 Image --
1985 2 22 00 -31.4 94.2 1002 25 2 Image --
< Cyclone 198507 1985 Season Cyclone 198509 >

Help